S C — FGF7634 — position and weather

sailwx.info

Track history (hours):
 
Tides and Currents Weather Stations Pressure Air Temp Water Temp Dewpoint Dewpoint Depression Visibility Wind Speed Wind Dir Waves Ship Positions

S C

Last reported at 2015-Aug-25 14:26 UTC. Time now 2015-Aug-30 03:33 UTC.
Position N 49°29' E 000°07'.

; draft 1 m.

Type: Pilot. MMSI: 227001820.

Date/timePositionNaut miles runAvg speedWind from/ knotsBaromVisibWave heightAir tempDewpointWater temp
2015-Aug-25 14:26N 49°29' E 000°07'0 0.0
2015-Aug-25 13:33N 49°29' E 000°07'0 0.0
2015-Aug-25 12:34N 49°29' E 000°07'0 0.0
2015-Aug-25 11:33N 49°29' E 000°07'0 0.0
2015-Aug-25 10:33N 49°29' E 000°07'0 0.0
2015-Aug-25 09:33N 49°29' E 000°07'0 0.0
2015-Aug-25 08:33N 49°29' E 000°07'0 0.0
2015-Aug-25 07:33N 49°29' E 000°07'0 0.0
2015-Aug-24 16:25N 49°29' E 000°07'0 0.0
2015-Aug-24 13:34N 49°29' E 000°07'0 0.0
2015-Aug-24 12:33N 49°29' E 000°07'0 0.0
2015-Aug-24 11:33N 49°29' E 000°07'0 0.0
2015-Aug-24 10:33N 49°29' E 000°07'0 0.0
2015-Aug-24 09:33N 49°29' E 000°07'0 0.0
2015-Aug-24 08:33N 49°29' E 000°07'0 0.1
2015-Aug-24 07:33N 49°29' E 000°07'5 4.9
2015-Aug-24 06:34N 49°32' E 000°01'2 1.7
2015-Aug-24 05:33N 49°33' W 000°02'6 6.3
2015-Aug-24 04:33N 49°29' E 000°06'0 0.5
2015-Aug-24 03:33N 49°29' E 000°07'9 8.9
2015-Aug-24 02:33N 49°32' W 000°06'9 8.9
2015-Aug-24 01:33N 49°29' E 000°07'0 0.0
2015-Aug-24 00:33N 49°29' E 000°07'0 0.0
2015-Aug-23 23:33N 49°29' E 000°07'0 0.0
2015-Aug-23 22:33N 49°29' E 000°07'0 0.0
2015-Aug-23 21:33N 49°29' E 000°07'7 6.9
2015-Aug-23 20:34N 49°31' W 000°04'7 6.9
2015-Aug-23 19:33N 49°29' E 000°07'1 1.4
2015-Aug-23 18:33N 49°29' E 000°05'1 1.4
2015-Aug-23 17:33N 49°29' E 000°07'0 0.0
2015-Aug-23 16:33N 49°29' E 000°07'0 0.0
2015-Aug-23 15:34N 49°29' E 000°07'0 0.0
2015-Aug-23 14:33N 49°29' E 000°07'4 4.2
2015-Aug-23 13:33N 49°30' E 000°01'4 4.2
2015-Aug-23 12:33N 49°29' E 000°07'9 8.5
2015-Aug-23 11:33N 49°31' W 000°06'9 8.5
2015-Aug-23 10:34N 49°29' E 000°07'0 0.4
2015-Aug-23 09:33N 49°29' E 000°06'0 0.4
2015-Aug-23 08:33N 49°29' E 000°07'5 4.5
2015-Aug-23 07:33N 49°30' E 000°00'4 4.0
2015-Aug-23 06:34N 49°29' E 000°06'1 0.6
2015-Aug-23 05:34N 49°29' E 000°07'0 0.0
2015-Aug-23 04:34N 49°29' E 000°07'0 0.0
2015-Aug-23 03:34N 49°29' E 000°07'9 8.8
2015-Aug-23 02:33N 49°32' W 000°06'9 8.8
2015-Aug-23 01:33N 49°29' E 000°07'0 0.0
2015-Aug-23 00:34N 49°29' E 000°07'0 0.0
2015-Aug-22 23:33N 49°29' E 000°07'0 0.0
2015-Aug-22 22:33N 49°29' E 000°07'0 0.0
2015-Aug-22 21:33N 49°29' E 000°07'2 1.7
2015-Aug-22 20:34N 49°29' E 000°04'7 6.5
2015-Aug-22 19:33N 49°31' W 000°05'8 8.3
2015-Aug-22 18:34N 49°29' E 000°07'0 0.0
2015-Aug-22 17:33N 49°29' E 000°07'0 0.0
2015-Aug-22 16:33N 49°29' E 000°07'1 0.9
2015-Aug-22 15:33N 49°29' E 000°05'1 0.9
2015-Aug-22 14:33N 49°29' E 000°07'5 4.7
2015-Aug-22 13:33N 49°30' W 000°00'5 4.7
2015-Aug-22 12:34N 49°29' E 000°07'3 3.1
2015-Aug-22 11:34N 49°30' E 000°02'3 3.1
2015-Aug-22 10:33N 49°29' E 000°07'0 0.0
2015-Aug-22 09:34N 49°29' E 000°07'8 7.8
2015-Aug-22 08:33N 49°31' W 000°05'8 7.8
2015-Aug-22 07:33N 49°29' E 000°07'0 0.1
2015-Aug-22 06:33N 49°29' E 000°07'6 6.5
2015-Aug-22 05:33N 49°33' W 000°01'6 6.2
2015-Aug-22 04:33N 49°29' E 000°06'0 0.3
2015-Aug-22 03:33N 49°29' E 000°07'6 6.2
2015-Aug-22 02:33N 49°31' W 000°02'5 5.3
2015-Aug-22 01:34N 49°29' E 000°05'1 0.9
2015-Aug-22 00:34N 49°29' E 000°07'0 0.0
2015-Aug-21 23:33N 49°29' E 000°07'0 0.0
2015-Aug-21 22:34N 49°29' E 000°07'9 8.8
2015-Aug-21 21:34N 49°31' W 000°06'9 8.8
2015-Aug-21 20:33N 49°29' E 000°07'0 0.0
2015-Aug-21 19:33N 49°29' E 000°07'0 0.0
2015-Aug-21 18:33N 49°29' E 000°07'5 5.2
2015-Aug-21 17:34N 49°30' W 000°01'5 5.2
2015-Aug-21 16:34N 49°29' E 000°07'0 0.0
2015-Aug-21 15:33N 49°29' E 000°07'0 0.0
2015-Aug-21 14:33N 49°29' E 000°07'0 0.0
2015-Aug-21 13:33N 49°29' E 000°07'3 2.8
2015-Aug-21 12:33N 49°30' E 000°03'2 2.2
2015-Aug-21 11:34N 49°29' E 000°06'1 0.7
2015-Aug-21 10:34N 49°29' E 000°07'1 1.3
2015-Aug-21 09:33N 49°29' E 000°05'1 1.3
2015-Aug-21 08:33N 49°29' E 000°07'0 0.0
2015-Aug-21 07:33N 49°29' E 000°07'0 0.1
2015-Aug-21 06:33N 49°29' E 000°07'6 6.1
2015-Aug-21 05:33N 49°33' W 000°01'6 6.1
2015-Aug-21 04:33N 49°29' E 000°07'0 0.0
2015-Aug-21 03:33N 49°29' E 000°07'0 0.0
2015-Aug-21 02:33N 49°29' E 000°07'7 6.7
2015-Aug-21 01:34N 49°34' W 000°01'7 6.7
2015-Aug-21 00:34N 49°29' E 000°07'0 0.0
2015-Aug-20 23:33N 49°29' E 000°07'5 4.6
2015-Aug-20 22:33N 49°30' E 000°00'5 4.6
2015-Aug-20 21:34N 49°29' E 000°07'0 0.0
2015-Aug-20 20:34N 49°29' E 000°07'0 0.0
2015-Aug-20 19:33N 49°29' E 000°07'10 9.8
2015-Aug-20 18:34N 49°32' W 000°08'10 9.8
2015-Aug-20 17:33N 49°29' E 000°07'0 0.0
2015-Aug-20 16:33N 49°29' E 000°07'0 0.0
2015-Aug-20 15:33N 49°29' E 000°07'0 0.0
2015-Aug-20 14:34N 49°29' E 000°07'0 0.0
2015-Aug-20 13:33N 49°29' E 000°07'5 5.0
2015-Aug-20 12:34N 49°30' W 000°01'4 4.4
2015-Aug-20 11:34N 49°29' E 000°06'0 0.1
2015-Aug-20 10:33N 49°29' E 000°06'0 0.3
2015-Aug-20 09:33N 49°29' E 000°06'0 0.5
2015-Aug-20 08:34N 49°29' E 000°07'0 0.0
2015-Aug-20 07:34N 49°29' E 000°07'0 0.0
2015-Aug-20 06:34N 49°29' E 000°07'0 0.1
2015-Aug-20 05:34N 49°29' E 000°07'0 0.1
2015-Aug-20 04:33N 49°29' E 000°07'0 0.0
2015-Aug-20 03:33N 49°29' E 000°07'8 8.4
2015-Aug-20 02:34N 49°31' W 000°06'8 3.8
2015-Aug-20 00:20N 49°29' E 000°07'6 7.7
2015-Aug-19 23:33N 49°31' W 000°02'6 2.9
2015-Aug-19 21:31N 49°29' E 000°07'4 4.4
2015-Aug-19 20:33N 49°30' E 000°00'1 0.8
2015-Aug-19 19:33N 49°29' E 000°00'3 3.4
2015-Aug-19 18:34N 49°29' E 000°05'1 0.9
2015-Aug-19 17:33N 49°29' E 000°07'0 0.0
2015-Aug-19 16:33N 49°29' E 000°07'0 0.2
2015-Aug-19 15:34N 49°29' E 000°07'1 1.2
2015-Aug-19 14:33N 49°29' E 000°05'1 0.6
2015-Aug-19 13:34N 49°29' E 000°04'2 2.0
2015-Aug-19 12:33N 49°29' E 000°07'0 0.0
2015-Aug-19 11:33N 49°29' E 000°07'0 0.0
2015-Aug-19 10:33N 49°29' E 000°07'0 0.0
2015-Aug-19 09:33N 49°29' E 000°07'0 0.0
2015-Aug-19 08:33N 49°29' E 000°07'0 0.0
2015-Aug-19 07:33N 49°29' E 000°07'0 0.0
2015-Aug-19 06:33N 49°29' E 000°07'0 0.1
2015-Aug-19 05:33N 49°29' E 000°07'1 0.7
2015-Aug-19 04:33N 49°29' E 000°06'1 0.7
2015-Aug-19 03:33N 49°29' E 000°07'7 6.6
2015-Aug-19 02:34N 49°31' W 000°03'7 6.6
2015-Aug-19 01:34N 49°29' E 000°07'0 0.0
2015-Aug-19 00:34N 49°29' E 000°07'8 7.7
2015-Aug-18 23:34N 49°31' W 000°05'8 7.7
2015-Aug-18 22:33N 49°29' E 000°07'0 0.0
2015-Aug-18 21:33N 49°29' E 000°07'9 8.9
2015-Aug-18 20:34N 49°31' W 000°06'7 6.9
2015-Aug-18 19:33N 49°29' E 000°04'2 1.9
2015-Aug-18 18:33N 49°29' E 000°07'0 0.0
2015-Aug-18 17:33N 49°29' E 000°07'0 0.0
2015-Aug-18 16:33N 49°29' E 000°07'3 3.3
2015-Aug-18 15:34N 49°30' E 000°02'3 3.3
2015-Aug-18 14:33N 49°29' E 000°07'0 0.0
2015-Aug-18 13:33N 49°29' E 000°07'3 2.6
2015-Aug-18 12:34N 49°30' E 000°03'3 2.6
2015-Aug-18 11:33N 49°29' E 000°07'0 0.0
2015-Aug-18 10:33N 49°29' E 000°07'6 6.0
2015-Aug-18 09:34N 49°31' W 000°02'6 6.0
2015-Aug-18 08:33N 49°29' E 000°07'3 2.6
2015-Aug-18 07:33N 49°30' E 000°03'3 2.6
2015-Aug-18 06:33N 49°29' E 000°07'5 4.5
2015-Aug-18 05:33N 49°30' W 000°00'5 4.5
2015-Aug-18 04:33N 49°29' E 000°07'0 0.0
2015-Aug-18 04:11N 49°29' E 000°07'0 0.0
2015-Aug-18 04:08N 49°29' E 000°07'0 0.0
2015-Aug-18 03:33N 49°29' E 000°07'0 0.0
2015-Aug-18 02:33N 49°29' E 000°07'0 0.0
2015-Aug-18 01:33N 49°29' E 000°07'0 0.0
2015-Aug-18 00:33N 49°29' E 000°07'0 0.0
2015-Aug-17 23:33N 49°29' E 000°07'1 0.7
2015-Aug-17 22:34N 49°29' E 000°06'1 0.7
2015-Aug-17 21:34N 49°29' E 000°07'1 0.6
2015-Aug-17 20:34N 49°29' E 000°06'1 0.6
2015-Aug-17 19:33N 49°29' E 000°07'0 0.0
2015-Aug-17 18:33N 49°29' E 000°07'9 8.5
2015-Aug-17 17:33N 49°31' W 000°06'9 8.5
2015-Aug-17 16:33N 49°29' E 000°07'6 6.4
2015-Aug-17 15:34N 49°30' W 000°03'6 6.4
2015-Aug-17 14:33N 49°29' E 000°07'0 0.0
2015-Aug-17 13:33N 49°29' E 000°07'0 0.0
2015-Aug-17 12:33N 49°29' E 000°07'  
Track history (hours):
 
Tides and Currents Weather Stations Pressure Air Temp Water Temp Dewpoint Dewpoint Depression Visibility Wind Speed Wind Dir Waves Ship Positions

S C

Last reported at 2015-Aug-25 14:26 UTC. Time now 2015-Aug-30 03:33 UTC.
Position N 49°29' E 000°07'.

; draft 1 m.

Type: Pilot. MMSI: 227001820.

Date/timePositionNaut miles runAvg speedWind from/ knotsBaromVisibWave heightAir tempDewpointWater temp
2015-Aug-25 14:26N 49°29' E 000°07'0 0.0
2015-Aug-25 13:33N 49°29' E 000°07'0 0.0
2015-Aug-25 12:34N 49°29' E 000°07'0 0.0
2015-Aug-25 11:33N 49°29' E 000°07'0 0.0
2015-Aug-25 10:33N 49°29' E 000°07'0 0.0
2015-Aug-25 09:33N 49°29' E 000°07'0 0.0
2015-Aug-25 08:33N 49°29' E 000°07'0 0.0
2015-Aug-25 07:33N 49°29' E 000°07'0 0.0
2015-Aug-24 16:25N 49°29' E 000°07'0 0.0
2015-Aug-24 13:34N 49°29' E 000°07'0 0.0
2015-Aug-24 12:33N 49°29' E 000°07'0 0.0
2015-Aug-24 11:33N 49°29' E 000°07'0 0.0
2015-Aug-24 10:33N 49°29' E 000°07'0 0.0
2015-Aug-24 09:33N 49°29' E 000°07'0 0.0
2015-Aug-24 08:33N 49°29' E 000°07'0 0.1
2015-Aug-24 07:33N 49°29' E 000°07'5 4.9
2015-Aug-24 06:34N 49°32' E 000°01'2 1.7
2015-Aug-24 05:33N 49°33' W 000°02'6 6.3
2015-Aug-24 04:33N 49°29' E 000°06'0 0.5
2015-Aug-24 03:33N 49°29' E 000°07'9 8.9
2015-Aug-24 02:33N 49°32' W 000°06'9 8.9
2015-Aug-24 01:33N 49°29' E 000°07'0 0.0
2015-Aug-24 00:33N 49°29' E 000°07'0 0.0
2015-Aug-23 23:33N 49°29' E 000°07'0 0.0
2015-Aug-23 22:33N 49°29' E 000°07'0 0.0
2015-Aug-23 21:33N 49°29' E 000°07'7 6.9
2015-Aug-23 20:34N 49°31' W 000°04'7 6.9
2015-Aug-23 19:33N 49°29' E 000°07'1 1.4
2015-Aug-23 18:33N 49°29' E 000°05'1 1.4
2015-Aug-23 17:33N 49°29' E 000°07'0 0.0
2015-Aug-23 16:33N 49°29' E 000°07'0 0.0
2015-Aug-23 15:34N 49°29' E 000°07'0 0.0
2015-Aug-23 14:33N 49°29' E 000°07'4 4.2
2015-Aug-23 13:33N 49°30' E 000°01'4 4.2
2015-Aug-23 12:33N 49°29' E 000°07'9 8.5
2015-Aug-23 11:33N 49°31' W 000°06'9 8.5
2015-Aug-23 10:34N 49°29' E 000°07'0 0.4
2015-Aug-23 09:33N 49°29' E 000°06'0 0.4
2015-Aug-23 08:33N 49°29' E 000°07'5 4.5
2015-Aug-23 07:33N 49°30' E 000°00'4 4.0
2015-Aug-23 06:34N 49°29' E 000°06'1 0.6
2015-Aug-23 05:34N 49°29' E 000°07'0 0.0
2015-Aug-23 04:34N 49°29' E 000°07'0 0.0
2015-Aug-23 03:34N 49°29' E 000°07'9 8.8
2015-Aug-23 02:33N 49°32' W 000°06'9 8.8
2015-Aug-23 01:33N 49°29' E 000°07'0 0.0
2015-Aug-23 00:34N 49°29' E 000°07'0 0.0
2015-Aug-22 23:33N 49°29' E 000°07'0 0.0
2015-Aug-22 22:33N 49°29' E 000°07'0 0.0
2015-Aug-22 21:33N 49°29' E 000°07'2 1.7
2015-Aug-22 20:34N 49°29' E 000°04'7 6.5
2015-Aug-22 19:33N 49°31' W 000°05'8 8.3
2015-Aug-22 18:34N 49°29' E 000°07'0 0.0
2015-Aug-22 17:33N 49°29' E 000°07'0 0.0
2015-Aug-22 16:33N 49°29' E 000°07'1 0.9
2015-Aug-22 15:33N 49°29' E 000°05'1 0.9
2015-Aug-22 14:33N 49°29' E 000°07'5 4.7
2015-Aug-22 13:33N 49°30' W 000°00'5 4.7
2015-Aug-22 12:34N 49°29' E 000°07'3 3.1
2015-Aug-22 11:34N 49°30' E 000°02'3 3.1
2015-Aug-22 10:33N 49°29' E 000°07'0 0.0
2015-Aug-22 09:34N 49°29' E 000°07'8 7.8
2015-Aug-22 08:33N 49°31' W 000°05'8 7.8
2015-Aug-22 07:33N 49°29' E 000°07'0 0.1
2015-Aug-22 06:33N 49°29' E 000°07'6 6.5
2015-Aug-22 05:33N 49°33' W 000°01'6 6.2
2015-Aug-22 04:33N 49°29' E 000°06'0 0.3
2015-Aug-22 03:33N 49°29' E 000°07'6 6.2
2015-Aug-22 02:33N 49°31' W 000°02'5 5.3
2015-Aug-22 01:34N 49°29' E 000°05'1 0.9
2015-Aug-22 00:34N 49°29' E 000°07'0 0.0
2015-Aug-21 23:33N 49°29' E 000°07'0 0.0
2015-Aug-21 22:34N 49°29' E 000°07'9 8.8
2015-Aug-21 21:34N 49°31' W 000°06'9 8.8
2015-Aug-21 20:33N 49°29' E 000°07'0 0.0
2015-Aug-21 19:33N 49°29' E 000°07'0 0.0
2015-Aug-21 18:33N 49°29' E 000°07'5 5.2
2015-Aug-21 17:34N 49°30' W 000°01'5 5.2
2015-Aug-21 16:34N 49°29' E 000°07'0 0.0
2015-Aug-21 15:33N 49°29' E 000°07'0 0.0
2015-Aug-21 14:33N 49°29' E 000°07'0 0.0
2015-Aug-21 13:33N 49°29' E 000°07'3 2.8
2015-Aug-21 12:33N 49°30' E 000°03'2 2.2
2015-Aug-21 11:34N 49°29' E 000°06'1 0.7
2015-Aug-21 10:34N 49°29' E 000°07'1 1.3
2015-Aug-21 09:33N 49°29' E 000°05'1 1.3
2015-Aug-21 08:33N 49°29' E 000°07'0 0.0
2015-Aug-21 07:33N 49°29' E 000°07'0 0.1
2015-Aug-21 06:33N 49°29' E 000°07'6 6.1
2015-Aug-21 05:33N 49°33' W 000°01'6 6.1
2015-Aug-21 04:33N 49°29' E 000°07'0 0.0
2015-Aug-21 03:33N 49°29' E 000°07'0 0.0
2015-Aug-21 02:33N 49°29' E 000°07'7 6.7
2015-Aug-21 01:34N 49°34' W 000°01'7 6.7
2015-Aug-21 00:34N 49°29' E 000°07'0 0.0
2015-Aug-20 23:33N 49°29' E 000°07'5 4.6
2015-Aug-20 22:33N 49°30' E 000°00'5 4.6
2015-Aug-20 21:34N 49°29' E 000°07'0 0.0
2015-Aug-20 20:34N 49°29' E 000°07'0 0.0
2015-Aug-20 19:33N 49°29' E 000°07'10 9.8
2015-Aug-20 18:34N 49°32' W 000°08'10 9.8
2015-Aug-20 17:33N 49°29' E 000°07'0 0.0
2015-Aug-20 16:33N 49°29' E 000°07'0 0.0
2015-Aug-20 15:33N 49°29' E 000°07'0 0.0
2015-Aug-20 14:34N 49°29' E 000°07'0 0.0
2015-Aug-20 13:33N 49°29' E 000°07'5 5.0
2015-Aug-20 12:34N 49°30' W 000°01'4 4.4
2015-Aug-20 11:34N 49°29' E 000°06'0 0.1
2015-Aug-20 10:33N 49°29' E 000°06'0 0.3
2015-Aug-20 09:33N 49°29' E 000°06'0 0.5
2015-Aug-20 08:34N 49°29' E 000°07'0 0.0
2015-Aug-20 07:34N 49°29' E 000°07'0 0.0
2015-Aug-20 06:34N 49°29' E 000°07'0 0.1
2015-Aug-20 05:34N 49°29' E 000°07'0 0.1
2015-Aug-20 04:33N 49°29' E 000°07'0 0.0
2015-Aug-20 03:33N 49°29' E 000°07'8 8.4
2015-Aug-20 02:34N 49°31' W 000°06'8 3.8
2015-Aug-20 00:20N 49°29' E 000°07'6 7.7
2015-Aug-19 23:33N 49°31' W 000°02'6 2.9
2015-Aug-19 21:31N 49°29' E 000°07'4 4.4
2015-Aug-19 20:33N 49°30' E 000°00'1 0.8
2015-Aug-19 19:33N 49°29' E 000°00'3 3.4
2015-Aug-19 18:34N 49°29' E 000°05'1 0.9
2015-Aug-19 17:33N 49°29' E 000°07'0 0.0
2015-Aug-19 16:33N 49°29' E 000°07'0 0.2
2015-Aug-19 15:34N 49°29' E 000°07'1 1.2
2015-Aug-19 14:33N 49°29' E 000°05'1 0.6
2015-Aug-19 13:34N 49°29' E 000°04'2 2.0
2015-Aug-19 12:33N 49°29' E 000°07'0 0.0
2015-Aug-19 11:33N 49°29' E 000°07'0 0.0
2015-Aug-19 10:33N 49°29' E 000°07'0 0.0
2015-Aug-19 09:33N 49°29' E 000°07'0 0.0
2015-Aug-19 08:33N 49°29' E 000°07'0 0.0
2015-Aug-19 07:33N 49°29' E 000°07'0 0.0
2015-Aug-19 06:33N 49°29' E 000°07'0 0.1
2015-Aug-19 05:33N 49°29' E 000°07'1 0.7
2015-Aug-19 04:33N 49°29' E 000°06'1 0.7
2015-Aug-19 03:33N 49°29' E 000°07'7 6.6
2015-Aug-19 02:34N 49°31' W 000°03'7 6.6
2015-Aug-19 01:34N 49°29' E 000°07'0 0.0
2015-Aug-19 00:34N 49°29' E 000°07'8 7.7
2015-Aug-18 23:34N 49°31' W 000°05'8 7.7
2015-Aug-18 22:33N 49°29' E 000°07'0 0.0
2015-Aug-18 21:33N 49°29' E 000°07'9 8.9
2015-Aug-18 20:34N 49°31' W 000°06'7 6.9
2015-Aug-18 19:33N 49°29' E 000°04'2 1.9
2015-Aug-18 18:33N 49°29' E 000°07'0 0.0
2015-Aug-18 17:33N 49°29' E 000°07'0 0.0
2015-Aug-18 16:33N 49°29' E 000°07'3 3.3
2015-Aug-18 15:34N 49°30' E 000°02'3 3.3
2015-Aug-18 14:33N 49°29' E 000°07'0 0.0
2015-Aug-18 13:33N 49°29' E 000°07'3 2.6
2015-Aug-18 12:34N 49°30' E 000°03'3 2.6
2015-Aug-18 11:33N 49°29' E 000°07'0 0.0
2015-Aug-18 10:33N 49°29' E 000°07'6 6.0
2015-Aug-18 09:34N 49°31' W 000°02'6 6.0
2015-Aug-18 08:33N 49°29' E 000°07'3 2.6
2015-Aug-18 07:33N 49°30' E 000°03'3 2.6
2015-Aug-18 06:33N 49°29' E 000°07'5 4.5
2015-Aug-18 05:33N 49°30' W 000°00'5 4.5
2015-Aug-18 04:33N 49°29' E 000°07'0 0.0
2015-Aug-18 04:11N 49°29' E 000°07'0 0.0
2015-Aug-18 04:08N 49°29' E 000°07'0 0.0
2015-Aug-18 03:33N 49°29' E 000°07'0 0.0
2015-Aug-18 02:33N 49°29' E 000°07'0 0.0
2015-Aug-18 01:33N 49°29' E 000°07'0 0.0
2015-Aug-18 00:33N 49°29' E 000°07'0 0.0
2015-Aug-17 23:33N 49°29' E 000°07'1 0.7
2015-Aug-17 22:34N 49°29' E 000°06'1 0.7
2015-Aug-17 21:34N 49°29' E 000°07'1 0.6
2015-Aug-17 20:34N 49°29' E 000°06'1 0.6
2015-Aug-17 19:33N 49°29' E 000°07'0 0.0
2015-Aug-17 18:33N 49°29' E 000°07'9 8.5
2015-Aug-17 17:33N 49°31' W 000°06'9 8.5
2015-Aug-17 16:33N 49°29' E 000°07'6 6.4
2015-Aug-17 15:34N 49°30' W 000°03'6 6.4
2015-Aug-17 14:33N 49°29' E 000°07'0 0.0
2015-Aug-17 13:33N 49°29' E 000°07'0 0.0
2015-Aug-17 12:33N 49°29' E 000°07'  

Dump ship's entire track history